createdAt,value
2022-10-13T00:00:14.001Z,5.88
2022-10-13T00:02:40.521Z,6.03
2022-10-13T00:05:07.183Z,6.70
2022-10-13T00:07:33.632Z,6.68
2022-10-13T00:10:00.142Z,6.43
2022-10-13T00:12:26.640Z,5.97
2022-10-13T00:14:53.341Z,5.53
2022-10-13T00:17:19.868Z,5.97
2022-10-13T00:19:46.329Z,4.88
2022-10-13T00:22:12.760Z,5.70
2022-10-13T00:24:39.224Z,6.00
2022-10-13T00:27:05.752Z,5.90
2022-10-13T00:29:32.278Z,5.85
2022-10-13T00:31:58.712Z,5.78
2022-10-13T00:34:25.295Z,5.75
2022-10-13T00:37:04.573Z,5.50
2022-10-13T00:39:40.266Z,6.20
2022-10-13T00:42:08.018Z,6.10
2022-10-13T00:45:05.348Z,5.70
2022-10-13T00:47:36.996Z,5.57
2022-10-13T00:50:05.060Z,5.80
2022-10-13T00:52:32.919Z,6.20
2022-10-13T00:55:01.000Z,6.30
2022-10-13T00:57:27.666Z,6.60
2022-10-13T00:59:54.878Z,5.22
2022-10-13T01:02:23.694Z,5.75
2022-10-13T01:04:51.501Z,5.73
2022-10-13T01:07:19.119Z,6.22
2022-10-13T01:09:45.807Z,6.05
2022-10-13T01:12:26.490Z,6.07
2022-10-13T01:14:55.714Z,6.05
2022-10-13T01:17:33.288Z,5.90
2022-10-13T01:19:59.605Z,6.00
2022-10-13T01:22:49.173Z,5.70
2022-10-13T01:25:26.624Z,6.00
2022-10-13T01:28:08.825Z,4.88
2022-10-13T01:30:45.647Z,5.30
2022-10-13T01:33:26.507Z,5.65
2022-10-13T01:36:17.505Z,6.90
2022-10-13T01:38:57.942Z,6.05
2022-10-13T01:41:31.737Z,5.70
2022-10-13T01:44:08.752Z,5.67
2022-10-13T01:46:38.079Z,6.65
2022-10-13T01:49:10.127Z,7.00
2022-10-13T01:51:37.280Z,6.45
2022-10-13T01:54:06.894Z,6.25
2022-10-13T01:56:33.431Z,6.17
2022-10-13T01:59:04.709Z,6.35
2022-10-13T02:01:49.433Z,6.32
2022-10-13T02:04:45.644Z,5.90
2022-10-13T02:07:29.804Z,6.88
2022-10-13T02:10:20.418Z,6.10
2022-10-13T02:12:53.306Z,6.47
2022-10-13T02:15:25.261Z,5.82
2022-10-13T02:17:53.383Z,6.28
2022-10-13T02:20:21.197Z,7.38
2022-10-13T02:22:54.627Z,6.90
2022-10-13T02:25:21.116Z,7.10
2022-10-13T02:27:47.680Z,6.70
2022-10-13T02:30:25.255Z,6.45
2022-10-13T02:32:51.669Z,7.47
2022-10-13T02:35:18.886Z,6.67
2022-10-13T02:37:45.490Z,6.85
2022-10-13T02:40:12.886Z,7.22
2022-10-13T02:42:39.464Z,7.47
2022-10-13T02:45:06.859Z,6.65
2022-10-13T02:47:33.306Z,6.60
2022-10-13T02:49:59.697Z,7.00
2022-10-13T02:52:26.164Z,6.63
2022-10-13T02:54:52.642Z,7.22
2022-10-13T02:57:19.198Z,7.07
2022-10-13T02:59:45.942Z,6.63
2022-10-13T03:02:12.445Z,6.60
2022-10-13T03:04:38.980Z,6.78
2022-10-13T03:07:05.470Z,5.95
2022-10-13T03:09:32.218Z,6.32
2022-10-13T03:11:58.708Z,6.37
2022-10-13T03:14:25.101Z,5.47
2022-10-13T03:16:51.641Z,6.28
2022-10-13T03:19:18.038Z,6.75
2022-10-13T03:21:44.455Z,7.43
2022-10-13T03:24:11.115Z,6.87
2022-10-13T03:26:49.882Z,6.90
2022-10-13T03:29:18.304Z,6.70
2022-10-13T03:31:45.071Z,6.60
2022-10-13T03:34:12.851Z,6.63
2022-10-13T03:36:39.789Z,6.37
2022-10-13T03:39:06.672Z,6.72
2022-10-13T03:41:39.091Z,6.82
2022-10-13T03:44:05.735Z,6.68
2022-10-13T03:46:32.268Z,6.93
2022-10-13T03:48:58.801Z,6.53
2022-10-13T03:51:25.551Z,6.80
2022-10-13T03:53:54.042Z,7.28
2022-10-13T03:56:23.454Z,7.85
2022-10-13T03:58:54.586Z,7.32
2022-10-13T04:01:26.278Z,7.20
2022-10-13T04:03:55.477Z,6.85
2022-10-13T04:06:23.050Z,7.22
2022-10-13T04:08:49.600Z,6.57
2022-10-13T04:11:16.641Z,7.25
2022-10-13T04:13:43.704Z,7.13
2022-10-13T04:16:16.163Z,6.75
2022-10-13T04:18:44.907Z,6.88
2022-10-13T04:21:14.784Z,6.97
2022-10-13T04:23:41.637Z,8.00
2022-10-13T04:26:14.017Z,7.03
2022-10-13T04:28:40.579Z,7.88
2022-10-13T04:31:07.041Z,7.50
2022-10-13T04:33:33.511Z,7.22
2022-10-13T04:36:04.270Z,7.35
2022-10-13T04:38:30.641Z,7.53
2022-10-13T04:40:57.236Z,7.53
2022-10-13T04:43:23.783Z,7.15
2022-10-13T04:45:50.319Z,7.68
2022-10-13T04:48:16.810Z,7.63
2022-10-13T04:50:43.824Z,7.03
2022-10-13T04:53:11.064Z,7.72
2022-10-13T04:55:39.634Z,7.68
2022-10-13T04:58:09.205Z,7.72
2022-10-13T05:00:35.734Z,7.93
2022-10-13T05:03:02.186Z,7.17
2022-10-13T05:05:28.622Z,6.90
2022-10-13T05:07:54.980Z,6.63
2022-10-13T05:10:21.351Z,7.30
2022-10-13T05:12:47.800Z,5.93
2022-10-13T05:15:14.266Z,7.20
2022-10-13T05:17:40.747Z,7.60
2022-10-13T05:20:07.823Z,8.25
2022-10-13T05:22:34.312Z,7.50
2022-10-13T05:25:00.699Z,7.70
2022-10-13T05:27:27.155Z,7.40
2022-10-13T05:29:53.634Z,8.48
2022-10-13T05:32:20.344Z,7.93
2022-10-13T05:34:49.893Z,7.57
2022-10-13T05:37:18.889Z,7.75
2022-10-13T05:39:48.887Z,7.90
2022-10-13T05:42:15.816Z,7.95
2022-10-13T05:44:42.496Z,7.90
2022-10-13T05:47:09.064Z,8.23
2022-10-13T05:49:39.857Z,8.27
2022-10-13T05:52:10.132Z,7.43
2022-10-13T05:54:42.130Z,7.97
2022-10-13T05:57:19.640Z,8.35
2022-10-13T05:59:51.713Z,7.97
2022-10-13T06:02:21.146Z,8.93
2022-10-13T06:04:50.802Z,7.70
2022-10-13T06:07:17.954Z,7.95
2022-10-13T06:09:44.926Z,8.80
2022-10-13T06:12:11.461Z,7.75
2022-10-13T06:14:38.044Z,8.10
2022-10-13T06:17:04.617Z,8.67
2022-10-13T06:19:31.192Z,8.07
2022-10-13T06:22:01.278Z,8.25
2022-10-13T06:24:30.637Z,8.77
2022-10-13T06:32:21.616Z,8.55
2022-10-13T06:34:48.401Z,8.48
2022-10-13T06:37:15.030Z,8.07
2022-10-13T06:39:42.267Z,8.45
2022-10-13T06:42:08.697Z,8.30
2022-10-13T06:44:37.835Z,7.97
2022-10-13T06:47:05.236Z,8.90
2022-10-13T06:49:32.212Z,9.18
2022-10-13T06:51:59.812Z,9.05
2022-10-13T06:54:26.619Z,8.03
2022-10-13T06:56:53.137Z,8.77
2022-10-13T06:59:19.870Z,8.30
2022-10-13T07:01:47.672Z,9.05
2022-10-13T07:04:14.360Z,9.20
2022-10-13T07:06:41.292Z,8.93
2022-10-13T07:09:08.832Z,9.82
2022-10-13T07:11:35.878Z,9.52
2022-10-13T07:16:28.716Z,9.10
2022-10-13T07:18:55.084Z,8.97
2022-10-13T07:21:21.771Z,9.15
2022-10-13T07:23:48.397Z,8.77
2022-10-13T07:26:16.394Z,9.45
2022-10-13T07:28:44.225Z,8.98
2022-10-13T07:31:21.350Z,9.27
2022-10-13T07:33:49.679Z,9.38
2022-10-13T07:36:16.460Z,9.75
2022-10-13T07:38:46.776Z,9.55
2022-10-13T07:41:22.792Z,9.23
2022-10-13T07:43:49.154Z,8.80
2022-10-13T07:46:16.861Z,9.45
2022-10-13T07:48:43.270Z,9.68
2022-10-13T07:51:12.257Z,9.95
2022-10-13T07:53:39.268Z,9.75
2022-10-13T07:56:08.319Z,9.23
2022-10-13T07:58:37.912Z,8.43
2022-10-13T08:01:05.242Z,10.10
2022-10-13T08:03:33.015Z,9.80
2022-10-13T08:06:01.165Z,9.60
2022-10-13T08:08:28.238Z,10.27
2022-10-13T08:10:55.129Z,11.65
2022-10-13T08:13:21.778Z,10.57
2022-10-13T08:15:48.228Z,9.85
2022-10-13T08:18:15.259Z,10.52
2022-10-13T08:20:43.884Z,10.03
2022-10-13T08:23:11.948Z,10.73
2022-10-13T08:25:39.848Z,10.80
2022-10-13T08:28:17.406Z,10.23
2022-10-13T08:30:44.242Z,10.60
2022-10-13T08:33:10.862Z,10.40
2022-10-13T08:35:37.749Z,9.23
2022-10-13T08:38:04.489Z,9.32
2022-10-13T08:40:35.762Z,9.43
2022-10-13T08:43:06.370Z,9.85
2022-10-13T08:45:42.094Z,9.03
2022-10-13T08:48:18.683Z,9.63
2022-10-13T08:50:48.885Z,9.85
2022-10-13T08:53:35.471Z,10.40
2022-10-13T08:56:13.995Z,10.93
2022-10-13T08:58:42.403Z,10.80
2022-10-13T09:01:08.741Z,9.82
2022-10-13T09:03:48.284Z,10.48
2022-10-13T09:06:19.057Z,10.18
2022-10-13T09:08:54.250Z,10.32
2022-10-13T09:11:21.089Z,10.13
2022-10-13T09:13:47.676Z,10.13
2022-10-13T09:16:14.070Z,10.20
2022-10-13T09:18:40.572Z,10.18
2022-10-13T09:21:16.715Z,9.60
2022-10-13T09:23:43.145Z,10.17
2022-10-13T09:26:18.924Z,9.05
2022-10-13T09:28:45.449Z,9.02
2022-10-13T09:31:17.045Z,8.90
2022-10-13T09:33:44.476Z,8.13
2022-10-13T09:36:13.425Z,8.00
2022-10-13T09:38:42.608Z,8.15
2022-10-13T09:41:08.968Z,8.23
2022-10-13T09:43:40.755Z,7.20
2022-10-13T09:46:26.353Z,6.88
2022-10-13T09:49:00.260Z,7.50
2022-10-13T09:51:41.084Z,6.95
2022-10-13T09:54:28.869Z,6.88
2022-10-13T09:57:03.420Z,6.78
2022-10-13T09:59:43.156Z,6.15
2022-10-13T10:02:53.941Z,7.07
2022-10-13T10:05:55.805Z,6.40
2022-10-13T10:09:04.075Z,6.82
2022-10-13T10:11:39.025Z,5.97
2022-10-13T10:14:34.379Z,6.07
2022-10-13T10:17:27.023Z,6.73
2022-10-13T10:19:59.491Z,6.70
2022-10-13T10:22:54.142Z,6.28
2022-10-13T10:25:33.804Z,6.13
2022-10-13T10:28:09.294Z,6.72
2022-10-13T10:30:43.212Z,5.33
2022-10-13T10:33:15.462Z,6.35
2022-10-13T10:36:25.173Z,6.10
2022-10-13T10:39:02.560Z,6.20
2022-10-13T10:41:46.908Z,6.40
2022-10-13T10:44:17.603Z,5.83
2022-10-13T10:46:48.781Z,5.93
2022-10-13T10:49:30.410Z,5.50
2022-10-13T10:51:58.692Z,5.90
2022-10-13T10:54:48.241Z,5.88
2022-10-13T10:57:33.566Z,6.63
2022-10-13T11:00:16.831Z,5.80
2022-10-13T11:03:01.743Z,6.00
2022-10-13T11:05:59.672Z,5.57
2022-10-13T11:08:38.465Z,5.60
2022-10-13T11:11:24.733Z,5.67
2022-10-13T11:14:00.424Z,5.80
2022-10-13T11:16:38.602Z,6.43
2022-10-13T11:19:30.380Z,6.97
2022-10-13T11:22:12.234Z,8.32
2022-10-13T11:24:41.545Z,8.07
2022-10-13T11:27:07.848Z,9.90
2022-10-13T11:29:51.550Z,8.80
2022-10-13T11:32:35.798Z,9.13
2022-10-13T11:35:02.279Z,9.32
2022-10-13T11:38:13.936Z,9.00
2022-10-13T11:41:01.903Z,8.57
2022-10-13T11:43:51.847Z,9.68
2022-10-13T11:46:29.896Z,9.20
2022-10-13T11:49:14.949Z,9.38
2022-10-13T11:51:57.540Z,9.03
2022-10-13T11:54:39.482Z,9.52
2022-10-13T11:57:23.036Z,9.27
2022-10-13T11:59:54.817Z,9.90
2022-10-13T12:02:23.443Z,9.82
2022-10-13T12:05:28.748Z,9.60
2022-10-13T12:08:03.750Z,9.68
2022-10-13T12:10:35.979Z,9.20
2022-10-13T12:13:04.121Z,9.48
2022-10-13T12:15:32.149Z,8.68
2022-10-13T12:17:58.850Z,7.97
2022-10-13T12:20:29.064Z,8.48
2022-10-13T12:22:56.693Z,8.45
2022-10-13T12:25:26.693Z,9.52
2022-10-13T12:27:56.318Z,7.90
2022-10-13T12:30:37.854Z,8.40
2022-10-13T12:33:20.824Z,8.00
2022-10-13T12:35:47.365Z,8.40
2022-10-13T12:38:19.322Z,7.75
2022-10-13T12:40:51.018Z,8.25
2022-10-13T12:43:22.213Z,8.60
2022-10-13T12:45:48.788Z,8.82
2022-10-13T12:48:43.338Z,10.02
2022-10-13T12:51:25.793Z,8.82
2022-10-13T12:53:53.281Z,9.00
2022-10-13T12:56:29.622Z,7.83
2022-10-13T12:58:59.703Z,8.43
2022-10-13T13:01:35.746Z,8.00
2022-10-13T13:04:17.367Z,7.93
2022-10-13T13:07:01.441Z,7.97
2022-10-13T13:09:35.609Z,8.57
2022-10-13T13:12:21.369Z,8.10
2022-10-13T13:14:51.217Z,8.23
2022-10-13T13:17:27.667Z,8.18
2022-10-13T13:20:20.284Z,8.80
2022-10-13T13:22:46.718Z,8.50
2022-10-13T13:25:13.270Z,8.40
2022-10-13T13:27:40.264Z,8.52
2022-10-13T13:30:12.604Z,8.43
2022-10-13T13:32:39.432Z,8.98
2022-10-13T13:35:06.363Z,8.30
2022-10-13T13:37:41.632Z,9.52
2022-10-13T13:40:15.347Z,8.98
2022-10-13T13:42:41.820Z,8.65
2022-10-13T13:45:12.876Z,8.60
2022-10-13T13:47:39.410Z,9.00
2022-10-13T13:50:15.624Z,8.82
2022-10-13T13:52:42.049Z,8.10
2022-10-13T13:55:08.987Z,9.00
2022-10-13T13:57:35.380Z,8.75
2022-10-13T14:00:02.022Z,9.30
2022-10-13T14:02:28.601Z,9.25
2022-10-13T14:04:55.122Z,8.38
2022-10-13T14:07:22.098Z,9.80
2022-10-13T14:09:49.060Z,8.40
2022-10-13T14:12:15.689Z,8.93
2022-10-13T14:14:42.144Z,9.05
2022-10-13T14:17:08.656Z,8.57
2022-10-13T14:19:35.457Z,9.77
2022-10-13T14:22:04.718Z,9.35
2022-10-13T14:24:34.943Z,9.80
2022-10-13T14:27:01.330Z,9.27
2022-10-13T14:29:27.922Z,9.00
2022-10-13T14:31:54.356Z,9.18
2022-10-13T14:34:21.131Z,9.07
2022-10-13T14:36:48.058Z,8.43
2022-10-13T14:39:14.480Z,9.35
2022-10-13T14:41:41.299Z,8.98
2022-10-13T14:44:10.540Z,9.20
2022-10-13T14:46:36.928Z,8.98
2022-10-13T14:49:03.659Z,9.30
2022-10-13T14:51:31.251Z,8.40
2022-10-13T14:53:57.714Z,8.88
2022-10-13T14:56:26.658Z,8.60
2022-10-13T14:59:05.275Z,8.57
2022-10-13T15:01:33.393Z,8.47
2022-10-13T15:04:01.124Z,9.05
2022-10-13T15:06:27.712Z,8.70
2022-10-13T15:08:54.936Z,8.38
2022-10-13T15:11:22.247Z,8.55
2022-10-13T15:13:48.744Z,7.73
2022-10-13T15:16:18.487Z,8.85
2022-10-13T15:18:45.133Z,8.60
2022-10-13T15:21:12.213Z,8.30
2022-10-13T15:23:39.669Z,7.93
2022-10-13T15:28:52.701Z,8.57
2022-10-13T15:31:20.892Z,8.50
2022-10-13T15:33:51.553Z,8.40
2022-10-13T15:36:18.943Z,8.52
2022-10-13T15:38:45.618Z,8.77
2022-10-13T15:41:12.792Z,9.25
2022-10-13T15:43:39.693Z,8.95
2022-10-13T15:46:08.667Z,9.18
2022-10-13T15:48:35.408Z,9.38
2022-10-13T15:51:02.782Z,9.37
2022-10-13T15:53:29.856Z,9.68
2022-10-13T15:56:03.214Z,9.43
2022-10-13T15:58:29.797Z,9.27
2022-10-13T16:01:10.181Z,9.40
2022-10-13T16:03:36.781Z,9.57
2022-10-13T16:06:09.774Z,8.90
2022-10-13T16:08:40.758Z,9.50
2022-10-13T16:11:10.100Z,9.40
2022-10-13T16:13:36.661Z,8.32
2022-10-13T16:16:03.232Z,8.40
2022-10-13T16:18:35.490Z,9.32
2022-10-13T16:21:08.692Z,10.02
2022-10-13T16:23:35.574Z,9.20
2022-10-13T16:26:03.697Z,9.65
2022-10-13T16:28:30.202Z,9.23
2022-10-13T16:30:56.859Z,10.18
2022-10-13T16:33:23.264Z,9.52
2022-10-13T16:35:49.656Z,10.48
2022-10-13T16:38:16.184Z,10.27
2022-10-13T16:40:42.577Z,9.77
2022-10-13T16:43:08.951Z,9.18
2022-10-13T16:45:58.641Z,9.98
2022-10-13T16:48:21.939Z,9.90
2022-10-13T16:50:48.322Z,10.60
2022-10-13T16:53:14.869Z,10.40
2022-10-13T16:55:41.923Z,10.18
2022-10-13T16:58:09.265Z,9.80
2022-10-13T17:00:39.613Z,10.07
2022-10-13T17:03:07.002Z,10.65
2022-10-13T17:05:34.271Z,11.13
2022-10-13T17:08:00.984Z,10.95
2022-10-13T17:10:27.490Z,11.32
2022-10-13T17:12:54.517Z,11.45
2022-10-13T17:15:21.017Z,11.38
2022-10-13T17:17:47.669Z,11.80
2022-10-13T17:20:14.121Z,12.38
2022-10-13T17:22:46.271Z,11.93
2022-10-13T17:25:13.471Z,11.80
2022-10-13T17:27:40.289Z,12.68
2022-10-13T17:30:07.164Z,11.63
2022-10-13T17:32:38.620Z,11.38
2022-10-13T17:35:06.069Z,11.30
2022-10-13T17:37:32.620Z,12.43
2022-10-13T17:39:58.991Z,12.55
2022-10-13T17:42:26.573Z,11.93
2022-10-13T17:44:53.025Z,11.63
2022-10-13T17:47:19.820Z,12.38
2022-10-13T17:49:46.460Z,11.60
2022-10-13T17:52:27.212Z,12.65
2022-10-13T17:54:59.884Z,13.00
2022-10-13T17:57:26.311Z,11.15
2022-10-13T17:59:53.223Z,11.18
2022-10-13T18:02:21.530Z,10.57
2022-10-13T18:04:47.975Z,11.07
2022-10-13T18:07:14.565Z,10.60
2022-10-13T18:09:41.112Z,9.75
2022-10-13T18:12:13.379Z,9.80
2022-10-13T18:14:39.893Z,9.25
2022-10-13T18:17:06.381Z,9.45
2022-10-13T18:19:36.542Z,8.20
2022-10-13T18:22:05.770Z,8.13
2022-10-13T18:24:32.219Z,8.63
2022-10-13T18:26:58.702Z,8.48
2022-10-13T18:29:25.322Z,9.40
2022-10-13T18:31:54.619Z,7.33
2022-10-13T18:34:21.070Z,8.10
2022-10-13T18:37:05.466Z,8.30
2022-10-13T18:39:34.131Z,9.07
2022-10-13T18:42:06.595Z,8.48
2022-10-13T18:44:33.275Z,9.20
2022-10-13T18:46:59.896Z,8.35
2022-10-13T18:49:30.927Z,8.02
2022-10-13T18:51:58.752Z,7.82
2022-10-13T18:54:26.829Z,6.88
2022-10-13T18:56:53.633Z,6.50
2022-10-13T18:59:20.464Z,6.93
2022-10-13T19:01:47.675Z,6.93
2022-10-13T19:04:16.334Z,5.57
2022-10-13T19:06:44.030Z,6.13
2022-10-13T19:09:13.365Z,5.47
2022-10-13T19:11:40.296Z,6.13
2022-10-13T19:14:11.274Z,6.15
2022-10-13T19:16:40.201Z,6.03
2022-10-13T19:19:09.170Z,6.22
2022-10-13T19:21:37.013Z,5.60
2022-10-13T19:24:11.680Z,5.50
2022-10-13T19:26:38.681Z,5.35
2022-10-13T19:29:13.641Z,5.45
2022-10-13T19:31:41.667Z,5.30
2022-10-13T19:34:11.898Z,5.03
2022-10-13T19:36:44.571Z,5.18
2022-10-13T19:39:18.774Z,5.90
2022-10-13T19:41:46.386Z,6.00
2022-10-13T19:44:16.581Z,5.82
2022-10-13T19:46:44.724Z,5.53
2022-10-13T19:49:17.060Z,5.82
2022-10-13T19:51:43.829Z,5.75
2022-10-13T19:54:11.187Z,5.93
2022-10-13T19:56:38.365Z,6.10
2022-10-13T19:59:12.180Z,6.50
2022-10-13T20:01:40.973Z,5.93
2022-10-13T20:04:08.272Z,7.03
2022-10-13T20:06:34.879Z,6.75
2022-10-13T20:09:01.776Z,6.13
2022-10-13T20:11:28.342Z,6.60
2022-10-13T20:13:54.755Z,6.70
2022-10-13T20:16:23.932Z,6.25
2022-10-13T20:18:56.945Z,6.15
2022-10-13T20:21:24.853Z,5.18
2022-10-13T20:23:51.888Z,6.17
2022-10-13T20:26:19.368Z,6.22
2022-10-13T20:28:47.935Z,7.10
2022-10-13T20:31:16.673Z,7.95
2022-10-13T20:33:43.711Z,9.07
2022-10-13T20:36:13.197Z,8.93
2022-10-13T20:38:39.839Z,8.68
2022-10-13T20:41:09.053Z,8.15
2022-10-13T20:43:35.750Z,6.20
2022-10-13T20:46:04.194Z,5.55
2022-10-13T20:48:51.098Z,5.40
2022-10-13T20:51:22.135Z,5.95
2022-10-13T20:53:50.451Z,5.07
2022-10-13T20:56:20.736Z,5.03
2022-10-13T20:58:54.700Z,5.47
2022-10-13T21:01:22.831Z,5.37
2022-10-13T21:03:56.066Z,5.70
2022-10-13T21:06:28.769Z,6.88
2022-10-13T21:08:55.326Z,6.90
2022-10-13T21:11:32.644Z,6.97
2022-10-13T21:13:59.328Z,7.70
2022-10-13T21:16:27.935Z,8.55
2022-10-13T21:18:55.711Z,8.68
2022-10-13T21:21:24.782Z,8.68
2022-10-13T21:23:56.269Z,9.63
2022-10-13T21:26:23.908Z,9.40
2022-10-13T21:29:01.087Z,9.73
2022-10-13T21:31:28.086Z,9.95
2022-10-13T21:33:54.673Z,11.60
2022-10-13T21:36:26.982Z,12.10
2022-10-13T21:39:01.894Z,12.50
2022-10-13T21:41:29.061Z,11.88
2022-10-13T21:43:56.322Z,12.60
2022-10-13T21:46:25.689Z,11.82
2022-10-13T21:48:57.814Z,11.65
2022-10-13T21:51:25.765Z,11.33
2022-10-13T21:53:54.733Z,12.75
2022-10-13T21:56:22.262Z,10.88
2022-10-13T21:58:49.246Z,12.20
2022-10-13T22:01:22.354Z,11.27
2022-10-13T22:03:52.175Z,12.53
2022-10-13T22:06:19.584Z,12.60
2022-10-13T22:08:49.226Z,12.05
2022-10-13T22:11:17.675Z,11.48
2022-10-13T22:13:44.332Z,10.85
2022-10-13T22:16:33.028Z,11.33
2022-10-13T22:18:59.688Z,11.43
2022-10-13T22:21:29.217Z,11.48
2022-10-13T22:24:02.287Z,11.00
2022-10-13T22:26:32.393Z,10.38
2022-10-13T22:29:01.028Z,11.63
2022-10-13T22:31:27.693Z,11.27
2022-10-13T22:33:54.566Z,11.90
2022-10-13T22:36:23.322Z,11.38
2022-10-13T22:38:51.045Z,9.52
2022-10-13T22:41:18.624Z,10.63
2022-10-13T22:43:48.860Z,10.65
2022-10-13T22:46:18.000Z,10.05
2022-10-13T22:48:44.453Z,10.77
2022-10-13T22:51:12.206Z,9.43
2022-10-13T22:53:38.967Z,11.17
2022-10-13T22:56:11.192Z,10.45
2022-10-13T22:58:37.979Z,11.60
2022-10-13T23:01:15.429Z,10.48
2022-10-13T23:03:42.459Z,9.98
2022-10-13T23:06:13.835Z,10.30
2022-10-13T23:08:41.480Z,8.75
2022-10-13T23:11:08.028Z,9.63
2022-10-13T23:13:34.412Z,7.40
2022-10-13T23:16:06.623Z,9.60
2022-10-13T23:18:33.060Z,9.13
2022-10-13T23:20:59.474Z,8.40
2022-10-13T23:23:25.961Z,7.78
2022-10-13T23:25:52.413Z,8.95
2022-10-13T23:28:19.314Z,6.97
2022-10-13T23:30:45.730Z,7.67
2022-10-13T23:33:12.121Z,7.28
2022-10-13T23:35:38.589Z,8.70
2022-10-13T23:38:05.112Z,8.15
2022-10-13T23:40:33.420Z,8.90
2022-10-13T23:42:59.868Z,8.63
2022-10-13T23:45:26.272Z,10.07
2022-10-13T23:47:52.667Z,10.27
2022-10-13T23:50:19.052Z,9.55
2022-10-13T23:52:45.503Z,10.00
2022-10-13T23:55:12.028Z,9.53
2022-10-13T23:57:38.392Z,8.60
